createdAt,value
2019-02-24T00:00:20.902Z,997.46
2019-02-24T00:02:25.047Z,997.50
2019-02-24T00:03:25.280Z,997.49
2019-02-24T00:05:29.449Z,997.46
2019-02-24T00:06:29.685Z,997.46
2019-02-24T00:08:22.788Z,997.35
2019-02-24T00:09:23.024Z,997.30
2019-02-24T00:11:27.170Z,997.30
2019-02-24T00:12:27.409Z,997.29
2019-02-24T00:14:31.581Z,997.31
2019-02-24T00:15:31.813Z,997.32
2019-02-24T00:17:35.957Z,997.33
2019-02-24T00:18:36.193Z,997.26
2019-02-24T00:20:40.360Z,997.29
2019-02-24T00:21:40.600Z,997.22
2019-02-24T00:23:44.761Z,997.33
2019-02-24T00:24:44.998Z,997.31
2019-02-24T00:26:49.155Z,997.35
2019-02-24T00:27:49.387Z,997.38
2019-02-24T00:29:53.552Z,997.34
2019-02-24T00:30:53.794Z,997.38
2019-02-24T00:32:57.940Z,997.41
2019-02-24T00:33:58.177Z,997.40
2019-02-24T00:36:02.353Z,997.41
2019-02-24T00:37:02.587Z,997.39
2019-02-24T00:39:06.745Z,997.36
2019-02-24T00:40:06.983Z,997.41
2019-02-24T00:42:11.128Z,997.35
2019-02-24T00:43:11.365Z,997.38
2019-02-24T00:45:15.542Z,997.38
2019-02-24T00:46:15.779Z,997.39
2019-02-24T00:48:08.857Z,997.39
2019-02-24T00:49:09.093Z,997.41
2019-02-24T00:51:13.264Z,997.37
2019-02-24T00:52:13.501Z,997.40
2019-02-24T00:54:17.673Z,997.35
2019-02-24T00:55:17.905Z,997.37
2019-02-24T00:57:22.053Z,997.35
2019-02-24T00:58:22.291Z,997.35
2019-02-24T01:00:26.463Z,997.37
2019-02-24T01:01:26.699Z,997.38
2019-02-24T01:03:30.842Z,997.32
2019-02-24T01:04:31.076Z,997.37
2019-02-24T01:06:35.249Z,997.35
2019-02-24T01:07:35.482Z,997.35
2019-02-24T01:09:39.657Z,997.34
2019-02-24T01:10:39.888Z,997.32
2019-02-24T01:12:44.038Z,997.34
2019-02-24T01:13:44.273Z,997.34
2019-02-24T01:15:48.445Z,997.35
2019-02-24T01:16:48.681Z,997.38
2019-02-24T01:18:52.824Z,997.32
2019-02-24T01:19:53.061Z,997.29
2019-02-24T01:21:57.230Z,997.32
2019-02-24T01:22:57.471Z,997.30
2019-02-24T01:25:01.638Z,997.28
2019-02-24T01:26:01.872Z,997.29
2019-02-24T01:27:54.950Z,997.20
2019-02-24T01:28:55.183Z,997.18
2019-02-24T01:30:59.359Z,997.22
2019-02-24T01:31:59.597Z,997.26
2019-02-24T01:34:03.740Z,997.25
2019-02-24T01:35:03.978Z,997.25
2019-02-24T01:37:08.149Z,997.28
2019-02-24T01:38:08.389Z,997.27
2019-02-24T01:40:12.564Z,997.27
2019-02-24T01:41:12.796Z,997.22
2019-02-24T01:43:16.943Z,997.29
2019-02-24T01:44:17.179Z,997.26
2019-02-24T01:46:21.350Z,997.23
2019-02-24T01:47:21.581Z,997.19
2019-02-24T01:49:25.731Z,997.23
2019-02-24T01:50:25.967Z,997.21
2019-02-24T01:52:30.139Z,997.14
2019-02-24T01:53:30.372Z,997.15
2019-02-24T01:55:34.544Z,997.16
2019-02-24T01:56:34.783Z,997.17
2019-02-24T01:58:38.930Z,997.13
2019-02-24T01:59:39.166Z,997.13
2019-02-24T02:01:44.343Z,997.13
2019-02-24T02:02:44.582Z,997.16
2019-02-24T02:04:48.729Z,997.15
2019-02-24T02:05:48.965Z,997.18
2019-02-24T02:07:42.093Z,997.17
2019-02-24T02:08:42.297Z,997.16
2019-02-24T02:10:46.473Z,997.20
2019-02-24T02:11:46.712Z,997.21
2019-02-24T02:13:50.850Z,997.22
2019-02-24T02:14:51.085Z,997.21
2019-02-24T02:16:55.255Z,997.20
2019-02-24T02:17:55.487Z,997.22
2019-02-24T02:19:59.630Z,997.16
2019-02-24T02:20:59.866Z,997.19
2019-02-24T02:23:04.034Z,997.14
2019-02-24T02:24:04.268Z,997.12
2019-02-24T02:26:08.441Z,997.10
2019-02-24T02:27:08.678Z,997.07
2019-02-24T02:29:12.829Z,997.09
2019-02-24T02:30:13.062Z,997.06
2019-02-24T02:32:17.233Z,997.07
2019-02-24T02:33:17.469Z,997.07
2019-02-24T02:35:21.614Z,997.05
2019-02-24T02:36:21.848Z,997.05
2019-02-24T02:38:14.944Z,997.00
2019-02-24T02:39:15.179Z,997.00
2019-02-24T02:41:19.346Z,997.00
2019-02-24T02:42:19.582Z,996.95
2019-02-24T02:44:23.727Z,996.92
2019-02-24T02:45:23.962Z,996.90
2019-02-24T02:47:28.126Z,996.82
2019-02-24T02:48:28.361Z,996.84
2019-02-24T02:50:32.511Z,996.85
2019-02-24T02:51:32.748Z,996.89
2019-02-24T02:53:36.914Z,996.92
2019-02-24T02:54:37.150Z,996.95
2019-02-24T02:56:41.318Z,996.97
2019-02-24T02:57:41.552Z,996.97
2019-02-24T02:59:45.698Z,997.01
2019-02-24T03:00:45.933Z,996.97
2019-02-24T03:02:50.105Z,997.00
2019-02-24T03:03:50.341Z,997.01
2019-02-24T03:05:54.486Z,997.02
2019-02-24T03:06:54.720Z,997.03
2019-02-24T03:08:58.887Z,997.05
2019-02-24T03:09:59.122Z,997.02
2019-02-24T03:12:03.290Z,997.01
2019-02-24T03:13:03.521Z,997.02
2019-02-24T03:15:07.670Z,997.03
2019-02-24T03:16:07.903Z,997.02
2019-02-24T03:18:00.995Z,997.02
2019-02-24T03:19:01.227Z,997.02
2019-02-24T03:21:05.380Z,997.04
2019-02-24T03:22:05.619Z,997.08
2019-02-24T03:24:09.783Z,997.06
2019-02-24T03:25:10.021Z,997.08
2019-02-24T03:27:14.187Z,997.01
2019-02-24T03:28:14.420Z,997.02
2019-02-24T03:30:18.591Z,996.99
2019-02-24T03:31:18.799Z,997.00
2019-02-24T03:33:22.964Z,996.94
2019-02-24T03:34:23.198Z,996.92
2019-02-24T03:36:27.344Z,996.90
2019-02-24T03:37:27.579Z,996.87
2019-02-24T03:39:31.749Z,996.90
2019-02-24T03:40:31.990Z,996.94
2019-02-24T03:42:36.159Z,996.89
2019-02-24T03:43:36.392Z,996.86
2019-02-24T03:45:40.537Z,996.85
2019-02-24T03:46:40.776Z,996.86
2019-02-24T03:48:44.945Z,996.82
2019-02-24T03:49:45.179Z,996.78
2019-02-24T03:51:49.323Z,996.75
2019-02-24T03:52:49.555Z,996.73
2019-02-24T03:54:53.724Z,996.75
2019-02-24T03:55:53.960Z,996.75
2019-02-24T03:57:47.055Z,996.78
2019-02-24T03:58:47.293Z,996.79
2019-02-24T04:00:51.435Z,996.78
2019-02-24T04:01:51.669Z,996.85
2019-02-24T04:03:55.833Z,996.83
2019-02-24T04:04:56.076Z,996.85
2019-02-24T04:07:00.215Z,996.80
2019-02-24T04:08:00.453Z,996.77
2019-02-24T04:10:04.626Z,996.77
2019-02-24T04:11:04.857Z,996.79
2019-02-24T04:13:09.027Z,996.76
2019-02-24T04:14:09.268Z,996.79
2019-02-24T04:16:13.419Z,996.77
2019-02-24T04:17:13.650Z,996.76
2019-02-24T04:19:17.830Z,996.81
2019-02-24T04:20:18.062Z,996.81
2019-02-24T04:22:22.206Z,996.83
2019-02-24T04:23:22.442Z,996.85
2019-02-24T04:25:26.613Z,996.90
2019-02-24T04:26:26.851Z,996.94
2019-02-24T04:28:19.945Z,996.98
2019-02-24T04:29:24.712Z,997.00
2019-02-24T04:31:24.327Z,996.98
2019-02-24T04:32:24.562Z,997.01
2019-02-24T04:34:28.736Z,997.00
2019-02-24T04:35:28.973Z,997.00
2019-02-24T04:37:33.116Z,997.02
2019-02-24T04:38:33.355Z,996.97
2019-02-24T04:40:37.524Z,996.98
2019-02-24T04:41:37.764Z,997.01
2019-02-24T04:43:41.918Z,996.95
2019-02-24T04:44:42.154Z,996.97
2019-02-24T04:46:46.306Z,996.90
2019-02-24T04:47:46.539Z,996.89
2019-02-24T04:49:50.702Z,996.91
2019-02-24T04:50:50.936Z,996.92
2019-02-24T04:52:55.092Z,996.92
2019-02-24T04:53:55.329Z,996.95
2019-02-24T04:55:59.492Z,996.99
2019-02-24T04:56:59.726Z,996.97
2019-02-24T04:59:03.890Z,997.02
2019-02-24T05:00:04.125Z,996.98
2019-02-24T05:02:08.282Z,997.00
2019-02-24T05:03:08.526Z,996.97
2019-02-24T05:05:12.678Z,996.97
2019-02-24T05:06:12.920Z,997.03
2019-02-24T05:08:05.990Z,996.95
2019-02-24T05:09:06.223Z,996.94
2019-02-24T05:11:10.393Z,996.97
2019-02-24T05:12:10.626Z,996.90
2019-02-24T05:14:14.796Z,996.91
2019-02-24T05:15:15.028Z,996.88
2019-02-24T05:17:19.175Z,996.88
2019-02-24T05:18:19.409Z,996.85
2019-02-24T05:20:23.575Z,996.83
2019-02-24T05:21:23.810Z,996.85
2019-02-24T05:23:27.965Z,996.87
2019-02-24T05:24:28.200Z,996.85
2019-02-24T05:26:32.371Z,996.84
2019-02-24T05:27:32.606Z,996.85
2019-02-24T05:29:45.197Z,996.80
2019-02-24T05:30:36.987Z,996.77
2019-02-24T05:32:41.166Z,996.79
2019-02-24T05:33:41.391Z,996.80
2019-02-24T05:35:45.556Z,996.83
2019-02-24T05:36:45.791Z,996.82
2019-02-24T05:38:49.941Z,996.83
2019-02-24T05:39:50.176Z,996.81
2019-02-24T05:41:54.342Z,996.86
2019-02-24T05:42:54.578Z,996.86
2019-02-24T05:44:58.743Z,996.87
2019-02-24T05:45:58.991Z,996.86
2019-02-24T05:47:52.048Z,996.88
2019-02-24T05:48:52.282Z,996.85
2019-02-24T05:50:56.447Z,996.84
2019-02-24T05:51:56.683Z,996.87
2019-02-24T05:54:00.843Z,996.89
2019-02-24T05:55:01.075Z,996.89
2019-02-24T05:57:05.244Z,996.90
2019-02-24T05:58:05.486Z,996.88
2019-02-24T06:00:09.626Z,996.85
2019-02-24T06:01:09.861Z,996.88
2019-02-24T06:03:14.027Z,996.85
2019-02-24T06:04:14.263Z,996.84
2019-02-24T06:06:18.428Z,996.85
2019-02-24T06:07:18.660Z,996.86
2019-02-24T06:09:22.808Z,996.91
2019-02-24T06:10:23.043Z,996.93
2019-02-24T06:12:27.214Z,996.91
2019-02-24T06:13:27.447Z,996.90
2019-02-24T06:15:31.594Z,996.90
2019-02-24T06:16:31.829Z,996.87
2019-02-24T06:18:24.923Z,996.88
2019-02-24T06:19:25.194Z,996.88
2019-02-24T06:21:29.364Z,996.90
2019-02-24T06:22:29.601Z,996.87
2019-02-24T06:24:34.759Z,996.86
2019-02-24T06:25:35.002Z,996.89
2019-02-24T06:27:39.155Z,996.89
2019-02-24T06:28:39.391Z,996.94
2019-02-24T06:30:44.027Z,996.99
2019-02-24T06:31:44.264Z,997.01
2019-02-24T06:33:48.431Z,997.03
2019-02-24T06:34:48.667Z,997.08
2019-02-24T06:36:52.832Z,997.10
2019-02-24T06:37:53.067Z,997.19
2019-02-24T06:39:57.221Z,997.23
2019-02-24T06:40:57.457Z,997.24
2019-02-24T06:43:01.624Z,997.30
2019-02-24T06:44:01.862Z,997.36
2019-02-24T06:46:06.007Z,997.37
2019-02-24T06:47:06.246Z,997.35
2019-02-24T06:49:10.419Z,997.38
2019-02-24T06:50:10.653Z,997.40
2019-02-24T06:52:14.826Z,997.37
2019-02-24T06:53:15.064Z,997.38
2019-02-24T06:55:19.212Z,997.41
2019-02-24T06:56:19.450Z,997.37
2019-02-24T06:58:12.545Z,997.41
2019-02-24T06:59:12.784Z,997.42
2019-02-24T07:01:16.937Z,997.48
2019-02-24T07:02:17.174Z,997.48
2019-02-24T07:04:21.353Z,997.48
2019-02-24T07:05:21.588Z,997.49
2019-02-24T07:07:25.756Z,997.61
2019-02-24T07:08:25.990Z,997.64
2019-02-24T07:10:30.139Z,997.56
2019-02-24T07:11:30.380Z,997.60
2019-02-24T07:13:34.545Z,997.66
2019-02-24T07:14:34.782Z,997.67
2019-02-24T07:16:38.934Z,997.68
2019-02-24T07:17:39.168Z,997.73
2019-02-24T07:19:43.343Z,997.82
2019-02-24T07:20:43.575Z,997.82
2019-02-24T07:22:47.737Z,997.85
2019-02-24T07:23:47.970Z,997.87
2019-02-24T07:25:52.121Z,997.87
2019-02-24T07:26:52.359Z,997.88
2019-02-24T07:28:56.567Z,997.97
2019-02-24T07:29:56.800Z,998.09
2019-02-24T07:32:00.959Z,998.49
2019-02-24T07:33:01.197Z,998.85
2019-02-24T07:35:05.383Z,1000.39
2019-02-24T07:36:05.624Z,1001.02
2019-02-24T07:37:58.729Z,1001.41
2019-02-24T07:38:58.968Z,1002.59
2019-02-24T07:41:03.123Z,1000.32
2019-02-24T07:42:03.359Z,999.67
2019-02-24T07:44:07.537Z,999.11
2019-02-24T07:45:07.779Z,998.85
2019-02-24T07:47:11.932Z,998.62
2019-02-24T07:48:12.173Z,998.72
2019-02-24T07:50:16.352Z,998.69
2019-02-24T07:51:16.591Z,998.62
2019-02-24T07:53:20.768Z,998.59
2019-02-24T07:54:21.015Z,998.59
2019-02-24T07:56:25.168Z,998.65
2019-02-24T07:57:25.409Z,998.76
2019-02-24T07:59:29.596Z,998.64
2019-02-24T08:00:32.330Z,998.70
2019-02-24T08:02:34.001Z,998.78
2019-02-24T08:03:34.246Z,998.75
2019-02-24T08:05:38.423Z,998.70
2019-02-24T08:06:38.664Z,998.81
2019-02-24T08:08:42.854Z,998.81
2019-02-24T08:09:43.091Z,998.89
2019-02-24T08:11:47.255Z,999.09
2019-02-24T08:12:47.499Z,999.34
2019-02-24T08:14:51.685Z,999.22
2019-02-24T08:15:51.928Z,998.98
2019-02-24T08:17:45.024Z,998.73
2019-02-24T08:18:49.602Z,998.72
2019-02-24T08:20:49.489Z,998.68
2019-02-24T08:21:49.715Z,998.65
2019-02-24T08:23:53.901Z,999.23
2019-02-24T08:24:54.148Z,999.90
2019-02-24T08:26:58.313Z,1000.33
2019-02-24T08:27:58.557Z,1000.43
2019-02-24T08:30:02.751Z,1000.66
2019-02-24T08:31:02.995Z,1000.76
2019-02-24T08:33:07.159Z,1000.80
2019-02-24T08:34:07.405Z,1000.82
2019-02-24T08:36:11.590Z,1000.83
2019-02-24T08:37:11.835Z,1000.79
2019-02-24T08:39:16.026Z,1000.87
2019-02-24T08:40:16.272Z,1000.89
2019-02-24T08:42:20.436Z,1000.78
2019-02-24T08:43:20.691Z,1000.68
2019-02-24T08:45:24.877Z,1000.52
2019-02-24T08:46:25.123Z,1000.48
2019-02-24T08:48:19.242Z,1000.24
2019-02-24T08:49:18.466Z,1000.23
2019-02-24T08:51:23.392Z,1000.44
2019-02-24T08:52:22.904Z,1000.52
2019-02-24T08:54:27.094Z,1000.03
2019-02-24T08:55:27.347Z,999.96
2019-02-24T08:57:31.513Z,999.95
2019-02-24T08:58:31.766Z,999.91
2019-02-24T09:00:35.962Z,999.97
2019-02-24T09:01:36.217Z,1000.08
2019-02-24T09:03:40.375Z,1000.04
2019-02-24T09:04:40.625Z,1000.04
2019-02-24T09:06:44.822Z,1000.07
2019-02-24T09:07:45.065Z,1000.04
2019-02-24T09:09:49.259Z,1000.04
2019-02-24T09:10:49.511Z,1000.01
2019-02-24T09:12:53.728Z,1000.02
2019-02-24T09:13:53.926Z,1000.02
2019-02-24T09:15:58.125Z,999.94
2019-02-24T09:16:58.369Z,999.96
2019-02-24T09:19:02.539Z,999.93
2019-02-24T09:20:02.794Z,999.92
2019-02-24T09:22:06.982Z,999.88
2019-02-24T09:23:07.234Z,999.89
2019-02-24T09:25:11.426Z,1000.01
2019-02-24T09:26:11.676Z,1000.03
2019-02-24T09:28:05.787Z,999.91
2019-02-24T09:29:06.037Z,999.40
2019-02-24T09:31:10.236Z,999.11
2019-02-24T09:32:10.486Z,999.05
2019-02-24T09:34:14.665Z,999.05
2019-02-24T09:35:14.914Z,999.04
2019-02-24T09:37:19.113Z,999.09
2019-02-24T09:38:19.365Z,999.09
2019-02-24T09:40:24.579Z,999.11
2019-02-24T09:41:24.833Z,999.08
2019-02-24T09:43:29.012Z,999.07
2019-02-24T09:44:29.263Z,999.06
2019-02-24T09:46:34.471Z,999.00
2019-02-24T09:47:34.722Z,999.01
2019-02-24T09:49:38.902Z,999.06
2019-02-24T09:50:39.157Z,999.04
2019-02-24T09:52:43.358Z,999.11
2019-02-24T09:53:43.610Z,999.10
2019-02-24T09:55:47.839Z,999.65
2019-02-24T09:56:48.093Z,999.88
2019-02-24T09:58:52.276Z,999.95
2019-02-24T09:59:52.531Z,999.95
2019-02-24T10:01:56.750Z,1000.00
2019-02-24T10:02:57.620Z,999.98
2019-02-24T10:05:01.187Z,999.95
2019-02-24T10:06:01.441Z,999.94
2019-02-24T10:07:54.574Z,999.92
2019-02-24T10:08:54.825Z,999.98
2019-02-24T10:10:59.030Z,1000.05
2019-02-24T10:11:59.284Z,1000.07
2019-02-24T10:14:03.468Z,1000.07
2019-02-24T10:15:03.723Z,1000.11
2019-02-24T10:17:07.925Z,1000.05
2019-02-24T10:18:08.180Z,1000.06
2019-02-24T10:20:12.376Z,1000.07
2019-02-24T10:21:12.624Z,1000.06
2019-02-24T10:23:16.850Z,1000.00
2019-02-24T10:24:17.104Z,999.97
2019-02-24T10:26:21.316Z,999.90
2019-02-24T10:27:21.577Z,999.90
2019-02-24T10:29:25.775Z,999.92
2019-02-24T10:30:26.035Z,999.90
2019-02-24T10:32:30.236Z,999.83
2019-02-24T10:33:30.492Z,999.82
2019-02-24T10:35:34.685Z,999.74
2019-02-24T10:36:34.931Z,999.76
2019-02-24T10:38:39.135Z,999.72
2019-02-24T10:39:39.389Z,999.75
2019-02-24T10:41:43.592Z,999.73
2019-02-24T10:42:43.851Z,999.72
2019-02-24T10:44:48.037Z,999.68
2019-02-24T10:45:48.293Z,999.63
2019-02-24T10:47:41.427Z,999.58
2019-02-24T10:48:41.681Z,999.57
2019-02-24T10:50:45.863Z,999.53
2019-02-24T10:51:46.115Z,999.54
2019-02-24T10:53:50.320Z,999.59
2019-02-24T10:54:50.575Z,999.55
2019-02-24T10:56:54.795Z,999.56
2019-02-24T10:57:55.042Z,999.55
2019-02-24T10:59:59.225Z,999.55
2019-02-24T11:00:59.476Z,999.61
2019-02-24T11:03:03.684Z,999.57
2019-02-24T11:04:03.938Z,999.52
2019-02-24T11:06:08.117Z,999.46
2019-02-24T11:07:08.373Z,999.35
2019-02-24T11:09:12.571Z,999.28
2019-02-24T11:10:12.826Z,999.25
2019-02-24T11:12:17.034Z,999.16
2019-02-24T11:13:17.288Z,999.09
2019-02-24T11:15:21.469Z,999.06
2019-02-24T11:16:21.731Z,999.06
2019-02-24T11:18:14.854Z,998.98
2019-02-24T11:19:15.108Z,998.96
2019-02-24T11:21:19.289Z,998.96
2019-02-24T11:22:19.545Z,998.95
2019-02-24T11:24:23.745Z,998.90
2019-02-24T11:25:24.678Z,998.80
2019-02-24T11:27:28.183Z,998.87
2019-02-24T11:28:28.437Z,998.84
2019-02-24T11:30:32.643Z,998.84
2019-02-24T11:31:38.393Z,998.86
2019-02-24T11:33:37.104Z,998.83
2019-02-24T11:34:37.357Z,998.78
2019-02-24T11:36:41.542Z,998.74
2019-02-24T11:37:41.813Z,998.74
2019-02-24T11:39:46.001Z,998.72
2019-02-24T11:40:46.257Z,998.75
2019-02-24T11:42:50.443Z,998.82
2019-02-24T11:43:50.697Z,998.79
2019-02-24T11:45:54.900Z,998.73
2019-02-24T11:46:55.156Z,998.75
2019-02-24T11:48:59.366Z,998.52
2019-02-24T11:49:59.619Z,998.40
2019-02-24T11:52:04.185Z,998.38
2019-02-24T11:53:04.058Z,998.33
2019-02-24T11:55:08.265Z,998.38
2019-02-24T11:56:08.575Z,998.33
2019-02-24T11:58:01.788Z,998.30
2019-02-24T11:59:02.170Z,998.31
2019-02-24T12:01:06.486Z,998.32
2019-02-24T12:02:06.786Z,998.34
2019-02-24T12:04:11.006Z,998.34
2019-02-24T12:05:11.259Z,998.36
2019-02-24T12:07:15.505Z,998.35
2019-02-24T12:08:15.867Z,998.37
2019-02-24T12:10:20.218Z,998.35
2019-02-24T12:11:20.630Z,998.28
2019-02-24T12:13:24.847Z,998.25
2019-02-24T12:14:25.233Z,998.24
2019-02-24T12:16:29.444Z,998.23
2019-02-24T12:17:29.782Z,998.19
2019-02-24T12:19:35.048Z,998.20
2019-02-24T12:20:34.483Z,998.20
2019-02-24T12:22:38.712Z,998.24
2019-02-24T12:23:38.984Z,998.25
2019-02-24T12:25:43.195Z,998.28
2019-02-24T12:26:43.538Z,998.26
2019-02-24T12:28:47.823Z,998.26
2019-02-24T12:29:48.261Z,998.27
2019-02-24T12:31:56.527Z,998.25
2019-02-24T12:32:52.667Z,998.26
2019-02-24T12:34:56.871Z,998.21
2019-02-24T12:35:57.135Z,998.18
2019-02-24T12:37:50.296Z,998.16
2019-02-24T12:38:50.544Z,998.14
2019-02-24T12:40:54.759Z,998.07
2019-02-24T12:41:55.075Z,998.07
2019-02-24T12:43:59.410Z,998.01
2019-02-24T12:44:59.797Z,998.02
2019-02-24T12:47:04.054Z,998.00
2019-02-24T12:48:04.309Z,997.99
2019-02-24T12:50:08.574Z,997.95
2019-02-24T12:51:08.952Z,997.89
2019-02-24T12:53:13.224Z,997.84
2019-02-24T12:54:14.248Z,997.84
2019-02-24T12:56:17.764Z,997.78
2019-02-24T12:57:18.022Z,997.77
2019-02-24T12:59:22.417Z,997.68
2019-02-24T13:00:22.487Z,997.71
2019-02-24T13:02:26.704Z,997.62
2019-02-24T13:03:26.955Z,997.66
2019-02-24T13:05:31.248Z,997.64
2019-02-24T13:06:31.586Z,997.66
2019-02-24T13:08:24.724Z,997.68
2019-02-24T13:09:24.972Z,997.66
2019-02-24T13:11:29.372Z,997.67
2019-02-24T13:12:29.521Z,997.68
2019-02-24T13:14:34.572Z,997.70
2019-02-24T13:15:34.868Z,997.72
2019-02-24T13:17:39.081Z,997.78
2019-02-24T13:18:39.460Z,997.75
2019-02-24T13:20:43.763Z,997.77
2019-02-24T13:21:44.021Z,997.75
2019-02-24T13:23:48.228Z,997.72
2019-02-24T13:24:48.539Z,997.71
2019-02-24T13:26:52.750Z,997.67
2019-02-24T13:27:53.172Z,997.67
2019-02-24T13:29:57.503Z,997.65
2019-02-24T13:30:57.821Z,997.63
2019-02-24T13:33:02.044Z,997.61
2019-02-24T13:34:02.330Z,997.63
2019-02-24T13:36:06.637Z,997.56
2019-02-24T13:37:06.887Z,997.57
2019-02-24T13:39:11.153Z,997.54
2019-02-24T13:40:11.569Z,997.57
2019-02-24T13:42:15.868Z,997.59
2019-02-24T13:43:16.728Z,997.59
2019-02-24T13:45:20.520Z,997.58
2019-02-24T13:46:20.694Z,997.59
2019-02-24T13:48:13.857Z,997.58
2019-02-24T13:49:14.105Z,997.55
2019-02-24T13:51:18.422Z,997.62
2019-02-24T13:52:18.694Z,997.64
2019-02-24T13:54:22.929Z,997.65
2019-02-24T13:55:23.282Z,997.66
2019-02-24T13:57:27.548Z,997.63
2019-02-24T13:58:27.806Z,997.62
2019-02-24T14:00:32.120Z,997.63
2019-02-24T14:01:32.461Z,997.63
2019-02-24T14:03:36.682Z,997.68
2019-02-24T14:04:36.976Z,997.72
2019-02-24T14:06:41.366Z,997.69
2019-02-24T14:07:41.549Z,997.69
2019-02-24T14:09:45.751Z,997.67
2019-02-24T14:10:46.043Z,997.69
2019-02-24T14:12:50.247Z,997.70
2019-02-24T14:13:50.650Z,997.66
2019-02-24T14:15:55.900Z,997.65
2019-02-24T14:16:55.350Z,997.64
2019-02-24T14:18:59.591Z,997.65
2019-02-24T14:20:00.044Z,997.61
2019-02-24T14:22:04.242Z,997.61
2019-02-24T14:23:04.619Z,997.62
2019-02-24T14:25:08.840Z,997.61
2019-02-24T14:26:09.270Z,997.63
2019-02-24T14:28:02.163Z,997.58
2019-02-24T14:29:02.418Z,997.58
2019-02-24T14:31:06.775Z,997.52
2019-02-24T14:32:07.026Z,997.56
2019-02-24T14:34:11.219Z,997.55
2019-02-24T14:35:11.472Z,997.56
2019-02-24T14:37:15.680Z,997.59
2019-02-24T14:38:15.930Z,997.59
2019-02-24T14:40:20.131Z,997.56
2019-02-24T14:41:20.386Z,997.51
2019-02-24T14:43:24.561Z,997.50
2019-02-24T14:44:24.814Z,997.52
2019-02-24T14:46:29.025Z,997.55
2019-02-24T14:47:29.276Z,997.59
2019-02-24T14:49:33.484Z,997.57
2019-02-24T14:50:33.707Z,997.61
2019-02-24T14:52:37.908Z,997.61
2019-02-24T14:53:38.158Z,997.60
2019-02-24T14:55:42.339Z,997.61
2019-02-24T14:56:42.587Z,997.58
2019-02-24T14:58:46.787Z,997.61
2019-02-24T14:59:47.040Z,997.57
2019-02-24T15:01:51.240Z,997.58
2019-02-24T15:02:51.491Z,997.55
2019-02-24T15:04:55.687Z,997.59
2019-02-24T15:05:55.940Z,997.56
2019-02-24T15:07:49.070Z,997.54
2019-02-24T15:08:49.325Z,997.51
2019-02-24T15:10:53.507Z,997.49
2019-02-24T15:11:53.760Z,997.52
2019-02-24T15:13:57.960Z,997.46
2019-02-24T15:14:58.258Z,997.44
2019-02-24T15:17:02.410Z,997.43
2019-02-24T15:18:02.661Z,997.46
2019-02-24T15:20:06.838Z,997.40
2019-02-24T15:21:07.090Z,997.42
2019-02-24T15:23:12.311Z,997.42
2019-02-24T15:24:12.560Z,997.38
2019-02-24T15:26:16.743Z,997.37
2019-02-24T15:27:16.993Z,997.38
2019-02-24T15:29:21.199Z,997.43
2019-02-24T15:30:21.453Z,997.46
2019-02-24T15:32:25.655Z,997.47
2019-02-24T15:33:25.906Z,997.45
2019-02-24T15:35:30.081Z,997.48
2019-02-24T15:36:30.335Z,997.47
2019-02-24T15:38:23.461Z,997.52
2019-02-24T15:39:23.713Z,997.49
2019-02-24T15:41:30.006Z,997.49
2019-02-24T15:42:28.141Z,997.45
2019-02-24T15:44:32.336Z,997.45
2019-02-24T15:45:32.587Z,997.43
2019-02-24T15:47:36.822Z,997.44
2019-02-24T15:48:37.071Z,997.47
2019-02-24T15:50:41.267Z,997.46
2019-02-24T15:51:41.525Z,997.48
2019-02-24T15:53:45.721Z,997.47
2019-02-24T15:54:45.970Z,997.52
2019-02-24T15:56:50.141Z,997.48
2019-02-24T15:57:50.390Z,997.50
2019-02-24T15:59:54.585Z,997.48
2019-02-24T16:00:54.831Z,997.45
2019-02-24T16:03:01.807Z,997.40
2019-02-24T16:03:59.253Z,997.37
2019-02-24T16:06:03.441Z,997.40
2019-02-24T16:07:03.689Z,997.43
2019-02-24T16:09:07.890Z,997.39
2019-02-24T16:10:08.138Z,997.41
2019-02-24T16:12:12.320Z,997.45
2019-02-24T16:13:16.901Z,997.45
2019-02-24T16:15:16.798Z,997.47
2019-02-24T16:16:17.008Z,997.47
2019-02-24T16:18:10.125Z,997.48
2019-02-24T16:19:10.372Z,997.51
2019-02-24T16:21:14.542Z,997.50
2019-02-24T16:22:14.792Z,997.41
2019-02-24T16:24:18.980Z,997.35
2019-02-24T16:25:19.226Z,997.33
2019-02-24T16:27:23.390Z,997.36
2019-02-24T16:28:23.637Z,997.35
2019-02-24T16:30:27.820Z,997.33
2019-02-24T16:31:28.067Z,997.38
2019-02-24T16:33:32.249Z,997.33
2019-02-24T16:34:32.494Z,997.34
2019-02-24T16:36:36.656Z,997.32
2019-02-24T16:37:39.002Z,997.33
2019-02-24T16:39:41.082Z,997.28
2019-02-24T16:40:41.325Z,997.25
2019-02-24T16:42:45.496Z,997.27
2019-02-24T16:43:45.740Z,997.25
2019-02-24T16:45:49.921Z,997.22
2019-02-24T16:46:50.165Z,997.19
2019-02-24T16:48:54.345Z,997.20
2019-02-24T16:49:54.597Z,997.17
2019-02-24T16:51:58.745Z,997.13
2019-02-24T16:52:58.987Z,997.18
2019-02-24T16:55:03.188Z,997.15
2019-02-24T16:56:03.429Z,997.18
2019-02-24T16:57:56.546Z,997.17
2019-02-24T16:58:56.776Z,997.20
2019-02-24T17:01:00.950Z,997.13
2019-02-24T17:02:01.200Z,997.13
2019-02-24T17:04:05.368Z,997.21
2019-02-24T17:05:05.782Z,997.11
2019-02-24T17:07:09.943Z,997.11
2019-02-24T17:08:10.231Z,997.08
2019-02-24T17:10:14.559Z,997.05
2019-02-24T17:11:14.885Z,997.03
2019-02-24T17:13:19.156Z,996.96
2019-02-24T17:14:19.459Z,996.97
2019-02-24T17:16:23.709Z,996.99
2019-02-24T17:17:24.042Z,997.01
2019-02-24T17:19:28.354Z,997.00
2019-02-24T17:20:28.593Z,997.00
2019-02-24T17:22:32.794Z,997.03
2019-02-24T17:23:33.158Z,996.98
2019-02-24T17:25:37.484Z,996.90
2019-02-24T17:26:37.725Z,996.92
2019-02-24T17:28:41.917Z,996.93
2019-02-24T17:29:42.159Z,996.93
2019-02-24T17:31:46.417Z,996.94
2019-02-24T17:32:46.660Z,996.92
2019-02-24T17:34:50.973Z,996.96
2019-02-24T17:35:51.220Z,996.94
2019-02-24T17:37:44.331Z,996.92
2019-02-24T17:38:44.679Z,996.94
2019-02-24T17:40:48.867Z,997.05
2019-02-24T17:41:49.250Z,997.07
2019-02-24T17:43:53.394Z,997.12
2019-02-24T17:44:53.642Z,997.10
2019-02-24T17:46:57.939Z,997.12
2019-02-24T17:47:58.306Z,997.09
2019-02-24T17:50:03.618Z,997.09
2019-02-24T17:51:03.860Z,997.14
2019-02-24T17:53:08.006Z,997.18
2019-02-24T17:54:08.299Z,997.24
2019-02-24T17:56:12.489Z,997.27
2019-02-24T17:57:12.794Z,997.26
2019-02-24T17:59:16.993Z,997.30
2019-02-24T18:00:17.235Z,997.27
2019-02-24T18:02:21.553Z,997.31
2019-02-24T18:03:21.939Z,997.24
2019-02-24T18:05:26.082Z,997.24
2019-02-24T18:06:26.452Z,997.21
2019-02-24T18:08:27.926Z,997.18
2019-02-24T18:09:19.903Z,997.12
2019-02-24T18:11:24.080Z,997.12
2019-02-24T18:12:24.340Z,997.14
2019-02-24T18:14:28.498Z,997.19
2019-02-24T18:15:28.735Z,997.20
2019-02-24T18:17:32.925Z,997.23
2019-02-24T18:18:33.167Z,997.25
2019-02-24T18:20:37.498Z,997.27
2019-02-24T18:21:37.837Z,997.29
2019-02-24T18:23:42.048Z,997.24
2019-02-24T18:24:42.418Z,997.24
2019-02-24T18:26:46.650Z,997.27
2019-02-24T18:27:46.925Z,997.27
2019-02-24T18:29:51.156Z,997.30
2019-02-24T18:30:51.394Z,997.27
2019-02-24T18:32:55.759Z,997.32
2019-02-24T18:33:55.786Z,997.33
2019-02-24T18:35:59.974Z,997.33
2019-02-24T18:37:00.213Z,997.33
2019-02-24T18:39:04.366Z,997.27
2019-02-24T18:40:04.757Z,997.24
2019-02-24T18:42:08.948Z,997.19
2019-02-24T18:43:09.187Z,997.17
2019-02-24T18:45:13.340Z,997.11
2019-02-24T18:46:13.584Z,997.13
2019-02-24T18:48:06.706Z,997.16
2019-02-24T18:49:06.946Z,997.19
2019-02-24T18:51:11.191Z,997.22
2019-02-24T18:52:11.507Z,997.20
2019-02-24T18:54:15.758Z,997.25
2019-02-24T18:55:16.003Z,997.21
2019-02-24T18:57:21.202Z,997.28
2019-02-24T18:58:21.696Z,997.27
2019-02-24T19:00:25.666Z,997.27
2019-02-24T19:01:25.892Z,997.32
2019-02-24T19:03:30.132Z,997.37